Latest Weather Observations for Cowra

IDN60801

Issued at 7:32 pm EST Tuesday 30 June 2015 (issued every 30 minutes, with the page automatically refreshed every 10 minutes)

About weather observations | Map of weather stations | Latest weather observations for NSW | Other Formats
Station Details ID: 065111 Name: COWRA AIRPORT AWS Lat: -33.84 Lon: 148.65 Height: 296.5 m
Data from the previous 72 hours. | See also: Recent months at Cowra
Date/Time
EST
Temp
°C
App
Temp
°C
Dew
Point
Rel
Hum
%
Delta-T
°C
Wind Press
QNH
hPa
Press
MSL
hPa
Rain
since 9 am
mm
Dir
 
Spd
km/h
Gust
km/h
Spd
kts
Gust
kts
30/07:30pm 7.2 4.4 5.2 87 0.9 SSW 9 13 5 7 1028.5 - 0.0
30/07:00pm 7.4 4.2 4.9 84 1.1 S 11 13 6 7 1028.2 - 0.0
30/06:30pm 7.8 4.1 4.4 79 1.5 SSW 13 17 7 9 1028.1 - 0.0
30/06:00pm 7.9 5.2 5.7 86 1.0 S 9 13 5 7 1027.9 1028.5 0.0
30/05:30pm 8.2 4.8 5.7 84 1.1 SSW 13 17 7 9 1027.6 - 0.0
30/05:00pm 8.3 5.3 5.9 85 1.1 SSW 11 15 6 8 1027.4 - 0.0
30/04:30pm 8.7 4.8 5.3 79 1.6 SSW 15 19 8 10 1027.2 - 0.0
30/04:00pm 9.6 6.3 6.3 80 1.6 S 13 17 7 9 1027.0 - 0.0
30/03:30pm 9.6 6.4 7.0 84 1.2 S 13 17 7 9 1026.9 - 0.0
30/03:00pm 10.5 6.8 6.5 76 1.9 SSW 15 19 8 10 1027.0 1027.6 0.0
30/02:30pm 11.3 10.2 7.0 75 2.1 S 2 9 1 5 1027.1 - 0.0
30/02:00pm 11.3 10.1 6.6 73 2.3 S 2 7 1 4 1027.1 - 0.0
30/01:30pm 11.4 10.6 6.3 71 2.4 CALM 0 0 0 0 1027.2 - 0.0
30/01:00pm 11.6 10.8 6.7 72 2.3 CALM 0 0 0 0 1027.4 - 0.0
30/12:30pm 11.1 9.7 7.2 77 1.9 E 4 9 2 5 1027.9 - 0.0
30/12:00pm 10.4 8.1 7.5 82 1.4 ENE 9 11 5 6 1028.4 1029.0 0.0
30/11:30am 9.9 7.5 7.0 82 1.4 SSE 9 13 5 7 1028.8 - 0.0
30/11:00am 9.3 6.9 6.9 85 1.1 SSE 9 11 5 6 1029.4 - 0.0
30/10:30am 8.5 6.5 7.1 91 0.7 SE 7 9 4 5 1029.7 - 0.0
30/10:00am 7.7 5.7 7.3 97 0.2 SSE 7 9 4 5 1029.6 - 0.0
30/09:30am 6.6 4.5 6.5 99 0.0 S 7 9 4 5 1029.8 - 0.0
30/09:00am 5.6 4.6 5.5 99 0.0 CALM 0 0 0 0 1029.8 1030.4 0.0
30/08:30am 5.2 2.8 5.1 99 0.0 SSW 7 9 4 5 1029.5 - 0.0
30/08:00am 4.8 2.9 4.7 99 0.0 S 4 7 2 4 1029.1 - 0.0
30/07:30am 4.8 1.9 4.7 99 0.0 E 9 11 5 6 1028.9 - 0.0
30/07:00am 4.5 1.6 4.4 99 0.0 SSW 9 11 5 6 1029.0 - 0.0
30/06:30am 4.4 1.1 4.3 99 0.0 SSW 11 15 6 8 1029.2 - 0.0
30/06:00am 4.5 -0.5 4.4 99 0.0 ENE 20 26 11 14 1028.5 1028.5 0.0
30/05:30am 4.3 1.3 4.0 98 0.1 ESE 9 15 5 8 1028.9 - 0.0
30/05:00am 3.6 -0.3 3.5 99 0.0 E 13 17 7 9 1028.6 - 0.0
30/04:30am 3.7 1.0 3.6 99 0.0 S 7 11 4 6 1028.9 - 0.0
30/04:00am 3.1 -0.1 3.0 99 0.0 S 9 13 5 7 1028.8 - 0.0
30/03:30am 2.5 -0.2 2.4 99 0.0 ESE 6 11 3 6 1028.6 - 0.0
30/03:00am 2.1 0.0 2.0 99 0.0 SSE 2 6 1 3 1028.9 1029.6 0.0
30/02:30am 1.1 -1.1 1.0 99 0.0 SSW 2 7 1 4 1028.7 - 0.0
30/02:00am 0.8 -1.5 0.7 99 0.0 SSW 2 6 1 3 1028.6 - 0.0
30/01:30am 1.1 -0.7 1.0 99 0.0 CALM 0 0 0 0 1028.7 - 0.0
30/01:00am 1.3 -0.5 1.2 99 0.0 CALM 0 0 0 0 1028.5 - 0.0
30/12:30am 2.1 0.4 2.0 99 0.0 CALM 0 0 0 0 1028.8 - 0.0
30/12:00am 2.0 0.3 1.9 99 0.0 CALM 0 0 0 0 1029.0 1029.7 0.0
 
Date/Time
EST
Temp
°C
App
Temp
°C
Dew
Point
Rel
Hum
%
Delta-T
°C
Wind Press
QNH
hPa
Press
MSL
hPa
Rain
since 9 am
mm
Dir
 
Spd
km/h
Gust
km/h
Spd
kts
Gust
kts
29/11:30pm 1.5 -0.3 1.4 99 0.0 CALM 0 0 0 0 1029.2 - 0.0
29/11:00pm 1.6 -0.3 0.4 92 0.5 CALM 0 0 0 0 1029.2 - 0.0
29/10:30pm 2.9 1.3 2.5 97 0.2 CALM 0 0 0 0 1029.4 - 0.0
29/10:00pm 3.4 2.0 3.3 99 0.0 CALM 0 0 0 0 1029.7 - 0.0
29/09:30pm 3.1 1.4 1.6 90 0.6 CALM 0 0 0 0 1029.8 - 0.0
29/09:00pm 5.3 4.1 4.6 95 0.3 CALM 0 0 0 0 1029.8 1030.5 0.0
29/08:30pm 5.3 4.2 5.2 99 0.0 CALM 0 0 0 0 1029.8 - 0.0
29/08:00pm 6.8 6.0 6.7 99 0.0 CALM 0 0 0 0 1029.9 - 0.0
29/07:30pm 4.2 1.9 0.7 78 1.4 WSW 2 9 1 5 1029.9 - 0.0
29/07:00pm 8.7 7.7 5.6 81 1.4 CALM 0 0 0 0 1029.5 - 0.0
29/06:30pm 8.5 7.7 6.3 86 1.0 CALM 0 0 0 0 1029.5 - 0.0
29/06:00pm 8.9 7.5 3.7 70 2.3 CALM 0 0 0 0 1029.2 1029.9 0.0
29/05:30pm 11.9 10.8 4.9 62 3.3 CALM 0 0 0 0 1029.0 - 0.0
29/05:00pm 13.6 12.6 5.7 59 3.8 CALM 0 0 0 0 1029.0 - 0.0
29/04:30pm 14.9 14.3 7.2 60 3.8 CALM 0 0 0 0 1029.0 - 0.0
29/04:00pm 15.8 15.0 6.3 53 4.7 CALM 0 0 0 0 1029.0 - 0.0
29/03:30pm 15.9 15.0 6.1 52 4.8 CALM 0 6 0 3 1028.9 - 0.0
29/03:00pm 16.0 14.5 7.0 55 4.5 SW 4 6 2 3 1028.9 1029.5 0.0
29/02:30pm 15.8 14.7 7.0 56 4.4 SW 2 7 1 4 1028.8 - 0.0
29/02:00pm 15.4 14.8 8.9 65 3.4 S 2 7 1 4 1029.1 - 0.0
29/01:30pm 14.5 12.9 8.0 65 3.3 WSW 6 9 3 5 1029.4 - 0.0
29/01:00pm 14.1 12.5 8.1 67 3.0 S 6 9 3 5 1029.7 - 0.0
29/12:30pm 13.5 11.7 7.9 69 2.8 SSW 7 15 4 8 1030.4 - 0.0
29/12:00pm 12.4 9.9 6.5 67 2.8 SSE 9 13 5 7 1030.8 1031.4 0.0
29/11:30am 11.6 8.6 6.1 69 2.6 SSE 11 15 6 8 1031.3 - 0.0
29/11:00am 10.7 7.7 5.9 72 2.3 SSE 11 13 6 7 1032.0 - 0.0
29/10:30am 9.3 6.6 5.7 78 1.7 SSE 9 13 5 7 1032.5 - 0.0
29/10:00am 7.7 4.1 5.2 84 1.1 SE 13 17 7 9 1032.7 - 0.0
29/09:30am 5.9 2.5 4.2 89 0.7 SE 11 15 6 8 1032.9 - 0.0
29/09:00am 3.6 0.9 3.5 99 0.0 S 7 9 4 5 1033.0 1033.7 0.0
29/08:30am 1.0 -2.0 0.9 99 0.0 S 6 7 3 4 1033.0 - 0.0
29/08:00am -0.4 -3.8 -0.5 99 0.0 S 7 7 4 4 1033.0 - 0.0
29/07:30am -1.0 -4.3 -1.1 99 0.0 S 6 7 3 4 1032.8 - 0.0
29/07:00am -1.3 -4.8 -1.4 99 0.0 S 7 7 4 4 1032.7 - 0.0
29/06:30am -1.3 -4.2 -1.4 99 0.0 SSE 4 9 2 5 1032.3 - 0.0
29/06:00am 0.0 -3.3 -0.1 99 0.0 SSE 7 9 4 5 1032.4 1033.0 0.0
29/05:30am -0.8 -4.6 -0.9 99 0.0 S 9 9 5 5 1032.3 - 0.0
29/05:00am -1.2 -4.7 -1.3 99 0.0 S 7 9 4 5 1032.2 - 0.0
29/04:30am -0.9 -4.4 -1.0 99 0.0 S 7 9 4 5 1032.3 - 0.0
29/04:00am -1.4 -4.0 -1.5 99 0.0 S 2 6 1 3 1032.4 - 0.0
29/03:30am -0.5 -2.6 -0.6 99 0.0 CALM 0 0 0 0 1032.6 - 0.0
29/03:00am -0.5 -3.7 -0.6 99 0.0 S 6 6 3 3 1032.6 1033.3 0.0
29/02:30am -0.5 -3.7 -0.6 99 0.0 S 6 7 3 4 1032.4 - 0.0
29/02:00am -0.7 -2.8 -1.0 98 0.1 CALM 0 9 0 5 1032.4 - 0.0
29/01:30am 0.8 -1.1 0.7 99 0.0 CALM 0 0 0 0 1032.4 - 0.0
29/01:00am 0.5 -1.4 0.4 99 0.0 CALM 0 0 0 0 1032.3 - 0.0
29/12:30am 0.6 -1.3 0.5 99 0.0 CALM 0 7 0 4 1032.4 - 0.0
29/12:00am 0.8 -1.8 0.7 99 0.0 SE 4 7 2 4 1032.5 1033.3 0.0
 
Date/Time
EST
Temp
°C
App
Temp
°C
Dew
Point
Rel
Hum
%
Delta-T
°C
Wind Press
QNH
hPa
Press
MSL
hPa
Rain
since 9 am
mm
Dir
 
Spd
km/h
Gust
km/h
Spd
kts
Gust
kts
28/11:30pm 0.6 -1.4 0.0 96 0.2 CALM 0 0 0 0 1032.7 - 0.0
28/11:00pm 2.0 0.3 1.9 99 0.0 CALM 0 0 0 0 1032.6 - 0.0
28/10:30pm 1.3 -0.6 0.4 94 0.3 CALM 0 0 0 0 1032.7 - 0.0
28/10:00pm 2.7 1.1 2.6 99 0.0 CALM 0 0 0 0 1032.6 - 0.0
28/09:30pm 3.2 1.7 3.1 99 0.0 CALM 0 0 0 0 1032.5 - 0.0
28/09:00pm 4.1 2.8 4.0 99 0.0 CALM 0 0 0 0 1032.4 1033.1 0.0
28/08:30pm 3.9 2.5 3.8 99 0.0 CALM 0 0 0 0 1032.3 - 0.0
28/08:00pm 5.5 4.5 5.4 99 0.0 CALM 0 0 0 0 1032.2 - 0.0
28/07:30pm 4.9 3.5 3.4 90 0.6 CALM 0 0 0 0 1031.9 - 0.0
28/07:00pm 5.1 3.5 2.6 84 1.0 CALM 0 0 0 0 1031.9 - 0.0
28/06:30pm 7.1 6.0 4.9 86 1.0 CALM 0 0 0 0 1031.6 - 0.0
28/06:00pm 6.9 5.4 3.2 77 1.6 CALM 0 0 0 0 1031.3 1031.9 0.0
28/05:30pm 9.3 8.1 4.5 72 2.2 CALM 0 0 0 0 1031.1 - 0.0
28/05:00pm 10.4 9.1 3.9 64 2.9 CALM 0 0 0 0 1031.3 - 0.0
28/04:30pm 12.8 11.7 5.2 60 3.6 CALM 0 0 0 0 1031.3 - 0.0
28/04:00pm 12.7 11.6 5.1 60 3.6 CALM 0 7 0 4 1031.4 - 0.0
28/03:30pm 13.2 12.2 5.6 60 3.6 CALM 0 0 0 0 1031.4 - 0.0
28/03:00pm 13.3 12.0 6.2 62 3.4 SW 2 6 1 3 1031.4 1032.0 0.0
28/02:30pm 12.4 11.1 6.0 65 3.1 SE 2 7 1 4 1031.4 - 0.0
28/02:00pm 12.0 9.9 5.6 65 3.0 ESE 6 11 3 6 1031.4 - 0.0
28/01:30pm 12.3 10.9 5.5 63 3.2 ENE 2 7 1 4 1031.7 - 0.0
28/01:00pm 11.6 9.6 6.9 73 2.3 WSW 7 11 4 6 1032.1 - 0.0
28/12:30pm 11.2 9.5 6.1 71 2.4 SW 4 15 2 8 1032.5 - 0.0
28/12:00pm 10.4 8.7 6.0 74 2.1 ESE 4 9 2 5 1032.9 1033.6 0.0
28/11:30am 9.1 6.8 5.8 80 1.5 SSE 7 11 4 6 1033.4 - 0.0
28/11:00am 8.8 6.5 5.5 80 1.5 S 7 13 4 7 1033.6 - 0.0
28/10:30am 7.0 4.3 5.8 92 0.5 SE 9 9 5 5 1034.1 - 0.0
28/10:00am 6.7 4.5 6.4 98 0.1 SSE 7 9 4 5 1034.2 - 0.0
28/09:30am 7.0 5.0 6.9 99 0.0 SE 7 9 4 5 1034.0 - 0.0
28/09:00am 6.1 5.2 6.1 100 0.0 CALM 0 0 0 0 1033.8 1034.3 0.2
28/08:30am 5.5 4.5 5.5 100 0.0 CALM 0 0 0 0 1033.5 - 0.2
28/08:00am 5.0 3.9 4.9 99 0.0 CALM 0 0 0 0 1033.3 - 0.2
28/07:30am 5.4 4.4 5.4 100 0.0 CALM 0 0 0 0 1033.2 - 0.0
28/07:00am 5.6 4.6 5.6 100 0.0 CALM 0 0 0 0 1032.9 - 0.0
28/06:30am 5.7 4.3 5.7 100 0.0 SE 2 7 1 4 1032.8 - 0.0
28/06:00am 5.7 3.6 5.7 100 0.0 ESE 6 9 3 5 1032.5 1033.1 0.0
28/05:30am 5.9 3.8 5.9 100 0.0 ESE 6 7 3 4 1032.2 - 0.0
28/05:00am 5.9 3.3 5.9 100 0.0 SE 9 11 5 6 1031.9 - 0.0
28/04:30am 5.8 3.5 5.8 100 0.0 SSE 7 9 4 5 1032.0 - 0.0
28/04:00am 6.0 2.6 6.0 100 0.0 S 13 15 7 8 1031.9 - 0.0
28/03:30am 6.4 4.8 6.4 100 0.0 S 4 11 2 6 1032.0 - 0.0
28/03:00am 5.8 4.8 5.8 100 0.0 CALM 0 7 0 4 1031.9 1032.7 0.0
28/02:30am 5.8 4.8 5.8 100 0.0 CALM 0 0 0 0 1032.0 - 0.0
28/02:00am 5.8 4.8 5.8 100 0.0 CALM 0 0 0 0 1031.9 - 0.0
28/01:30am 5.7 3.4 5.7 100 0.0 SW 7 9 4 5 1032.0 - 0.0
28/01:00am 5.4 2.3 5.4 100 0.0 SW 11 13 6 7 1032.3 - 0.0
28/12:30am 5.7 2.3 5.7 100 0.0 SSW 13 15 7 8 1032.4 - 0.0
28/12:00am 6.1 3.5 6.1 100 0.0 SW 9 11 5 6 1032.4 1033.1 0.0
 
Date/Time
EST
Temp
°C
App
Temp
°C
Dew
Point
Rel
Hum
%
Delta-T
°C
Wind Press
QNH
hPa
Press
MSL
hPa
Rain
since 9 am
mm
Dir
 
Spd
km/h
Gust
km/h
Spd
kts
Gust
kts
27/11:30pm 6.3 4.1 6.3 100 0.0 S 7 11 4 6 1032.4 - 0.0
27/11:00pm 6.3 4.1 6.3 100 0.0 S 7 9 4 5 1032.5 - 0.0
27/10:30pm 6.0 3.0 6.0 100 0.0 SSW 11 15 6 8 1032.6 - 0.0
27/10:00pm 6.1 3.5 6.1 100 0.0 S 9 13 5 7 1032.7 - 0.0
27/09:30pm 6.2 3.6 6.2 100 0.0 SSE 9 13 5 7 1032.7 - 0.0
27/09:00pm 6.0 2.2 5.9 99 0.0 S 15 17 8 9 1032.8 1033.5 0.0
27/08:30pm 6.8 4.7 6.7 99 0.0 SE 7 9 4 5 1032.5 - 0.0
27/08:00pm 6.8 6.0 6.4 97 0.2 CALM 0 6 0 3 1032.5 - 0.0

Other Formats:

Comma delimited format used in spreadsheet applications
http://www.bom.gov.au/fwo/IDN60801/IDN60801.95721.axf

JavaScript Object Notation format (JSON) in row-major order
http://www.bom.gov.au/fwo/IDN60801/IDN60801.95721.json